createdAt,value
2019-06-26T00:01:57.352Z,26.40
2019-06-26T00:04:25.950Z,26.40
2019-06-26T00:06:54.588Z,26.40
2019-06-26T00:09:23.183Z,26.40
2019-06-26T00:11:52.136Z,26.30
2019-06-26T00:14:20.699Z,26.30
2019-06-26T00:16:49.203Z,26.30
2019-06-26T00:19:17.720Z,26.20
2019-06-26T00:21:46.383Z,26.20
2019-06-26T00:24:14.932Z,26.10
2019-06-26T00:26:43.435Z,26.10
2019-06-26T00:29:11.963Z,26.10
2019-06-26T00:31:40.474Z,26.10
2019-06-26T00:34:09.079Z,26.00
2019-06-26T00:36:37.704Z,26.00
2019-06-26T00:39:07.357Z,26.00
2019-06-26T00:41:35.914Z,26.00
2019-06-26T00:44:04.798Z,26.00
2019-06-26T00:46:33.334Z,26.00
2019-06-26T00:49:01.839Z,26.00
2019-06-26T00:51:30.410Z,26.00
2019-06-26T00:53:59.350Z,26.00
2019-06-26T00:56:27.858Z,26.00
2019-06-26T00:58:56.398Z,26.00
2019-06-26T01:01:24.946Z,26.00
2019-06-26T01:03:55.117Z,26.00
2019-06-26T01:06:41.571Z,26.00
2019-06-26T01:09:10.090Z,25.90
2019-06-26T01:11:38.642Z,25.90
2019-06-26T01:14:07.258Z,25.80
2019-06-26T01:16:35.786Z,25.80
2019-06-26T01:19:04.638Z,25.80
2019-06-26T01:21:33.343Z,25.80
2019-06-26T01:24:01.877Z,25.80
2019-06-26T01:26:30.437Z,25.80
2019-06-26T01:28:58.925Z,25.70
2019-06-26T01:31:27.710Z,25.70
2019-06-26T01:33:56.206Z,25.70
2019-06-26T01:36:24.755Z,25.60
2019-06-26T01:38:53.246Z,25.60
2019-06-26T01:41:21.754Z,25.40
2019-06-26T01:43:50.250Z,25.40
2019-06-26T01:46:18.780Z,25.40
2019-06-26T01:48:47.426Z,25.40
2019-06-26T01:51:15.914Z,25.40
2019-06-26T01:53:44.453Z,25.40
2019-06-26T01:56:13.066Z,25.30
2019-06-26T01:58:41.578Z,25.30
2019-06-26T02:01:10.167Z,25.30
2019-06-26T02:03:38.773Z,25.40
2019-06-26T02:06:07.267Z,25.30
2019-06-26T02:08:35.762Z,25.40
2019-06-26T02:11:04.522Z,25.30
2019-06-26T02:13:33.001Z,25.30
2019-06-26T02:16:01.492Z,25.30
2019-06-26T02:18:37.404Z,25.30
2019-06-26T02:21:05.986Z,25.30
2019-06-26T02:23:34.621Z,25.30
2019-06-26T02:26:05.996Z,25.30
2019-06-26T02:28:34.596Z,25.30
2019-06-26T02:31:03.215Z,25.20
2019-06-26T02:33:31.783Z,25.20
2019-06-26T02:36:00.364Z,25.10
2019-06-26T02:38:28.984Z,25.10
2019-06-26T02:40:57.842Z,25.10
2019-06-26T02:43:26.343Z,25.10
2019-06-26T02:45:54.844Z,25.10
2019-06-26T02:48:23.468Z,25.10
2019-06-26T02:50:52.173Z,25.10
2019-06-26T02:53:20.706Z,25.10
2019-06-26T02:55:49.267Z,25.00
2019-06-26T02:58:17.876Z,25.00
2019-06-26T03:00:46.459Z,24.90
2019-06-26T03:03:15.043Z,24.90
2019-06-26T03:05:43.626Z,24.90
2019-06-26T03:08:12.157Z,24.90
2019-06-26T03:10:40.836Z,24.80
2019-06-26T03:13:09.588Z,24.80
2019-06-26T03:15:38.065Z,24.90
2019-06-26T03:18:06.558Z,24.80
2019-06-26T03:20:38.322Z,24.80
2019-06-26T03:23:06.914Z,24.80
2019-06-26T03:25:35.457Z,24.80
2019-06-26T03:28:04.099Z,24.70
2019-06-26T03:30:32.597Z,24.70
2019-06-26T03:33:01.172Z,24.70
2019-06-26T03:35:29.922Z,24.80
2019-06-26T03:37:58.450Z,24.70
2019-06-26T03:40:27.146Z,24.70
2019-06-26T03:42:55.798Z,24.70
2019-06-26T03:45:26.251Z,24.70
2019-06-26T03:47:54.542Z,24.80
2019-06-26T03:50:23.291Z,24.80
2019-06-26T03:52:52.071Z,24.80
2019-06-26T03:55:20.806Z,24.80
2019-06-26T03:57:49.378Z,24.90
2019-06-26T04:00:26.497Z,24.90
2019-06-26T04:02:55.074Z,24.90
2019-06-26T04:05:23.589Z,24.90
2019-06-26T04:07:52.383Z,24.80
2019-06-26T04:10:20.885Z,24.80
2019-06-26T04:12:49.370Z,24.90
2019-06-26T04:15:17.973Z,24.90
2019-06-26T04:17:46.525Z,25.00
2019-06-26T04:20:15.258Z,24.90
2019-06-26T04:22:47.323Z,25.00
2019-06-26T04:25:14.407Z,25.00
2019-06-26T04:27:42.994Z,25.00
2019-06-26T04:30:12.013Z,25.10
2019-06-26T04:32:40.518Z,25.10
2019-06-26T04:35:09.209Z,25.10
2019-06-26T04:37:37.866Z,25.10
2019-06-26T04:40:07.191Z,25.20
2019-06-26T04:42:35.781Z,25.30
2019-06-26T04:45:06.272Z,25.40
2019-06-26T04:47:34.908Z,25.50
2019-06-26T04:50:05.370Z,25.60
2019-06-26T04:52:33.864Z,25.70
2019-06-26T04:55:02.406Z,25.70
2019-06-26T04:57:31.014Z,25.90
2019-06-26T04:59:59.610Z,25.90
2019-06-26T05:02:28.189Z,25.90
2019-06-26T05:04:56.677Z,26.00
2019-06-26T05:07:25.339Z,26.10
2019-06-26T05:09:53.865Z,26.20
2019-06-26T05:12:22.367Z,26.20
2019-06-26T05:14:50.996Z,26.30
2019-06-26T05:17:19.636Z,26.30
2019-06-26T05:19:48.197Z,26.50
2019-06-26T05:22:16.761Z,26.60
2019-06-26T05:24:46.542Z,26.60
2019-06-26T05:27:15.369Z,26.70
2019-06-26T05:29:43.941Z,26.70
2019-06-26T05:32:12.491Z,26.80
2019-06-26T05:34:41.049Z,26.90
2019-06-26T05:37:09.583Z,27.00
2019-06-26T05:39:38.196Z,27.10
2019-06-26T05:42:07.012Z,27.20
2019-06-26T05:44:35.597Z,27.30
2019-06-26T05:47:07.114Z,27.40
2019-06-26T05:49:34.482Z,27.50
2019-06-26T05:52:03.008Z,27.50
2019-06-26T05:54:31.610Z,27.50
2019-06-26T05:57:00.107Z,27.60
2019-06-26T05:59:28.721Z,27.70
2019-06-26T06:01:57.390Z,27.80
2019-06-26T06:04:25.996Z,28.00
2019-06-26T06:06:55.311Z,28.00
2019-06-26T06:09:23.969Z,28.10
2019-06-26T06:11:52.534Z,28.20
2019-06-26T06:14:21.071Z,28.40
2019-06-26T06:16:49.648Z,28.40
2019-06-26T06:19:18.536Z,28.60
2019-06-26T06:21:47.154Z,28.60
2019-06-26T06:24:15.783Z,28.70
2019-06-26T06:26:44.460Z,28.80
2019-06-26T06:29:12.972Z,28.80
2019-06-26T06:31:41.706Z,28.90
2019-06-26T06:34:10.216Z,29.10
2019-06-26T06:36:38.821Z,29.20
2019-06-26T06:39:07.421Z,29.30
2019-06-26T06:41:35.992Z,29.40
2019-06-26T06:44:04.660Z,29.40
2019-06-26T06:46:33.168Z,29.30
2019-06-26T06:49:01.687Z,29.50
2019-06-26T06:51:30.292Z,29.50
2019-06-26T06:54:01.726Z,29.70
2019-06-26T06:56:30.299Z,29.80
2019-06-26T06:58:58.885Z,30.00
2019-06-26T07:01:27.377Z,29.90
2019-06-26T07:03:55.945Z,29.90
2019-06-26T07:06:24.440Z,30.10
2019-06-26T07:08:53.025Z,30.00
2019-06-26T07:11:21.548Z,30.20
2019-06-26T07:13:50.166Z,30.20
2019-06-26T07:16:18.826Z,30.30
2019-06-26T07:18:47.347Z,30.50
2019-06-26T07:21:15.906Z,30.60
2019-06-26T07:23:44.590Z,30.60
2019-06-26T07:26:13.476Z,30.70
2019-06-26T07:28:42.205Z,30.90
2019-06-26T07:31:10.798Z,31.00
2019-06-26T07:33:39.329Z,31.00
2019-06-26T07:36:07.987Z,30.90
2019-06-26T07:38:36.482Z,31.00
2019-06-26T07:41:05.291Z,31.10
2019-06-26T07:43:33.832Z,31.10
2019-06-26T07:46:02.376Z,31.10
2019-06-26T07:48:30.958Z,31.20
2019-06-26T07:50:59.543Z,31.30
2019-06-26T07:53:28.038Z,31.50
2019-06-26T07:55:56.711Z,31.40
2019-06-26T07:58:25.238Z,31.40
2019-06-26T08:00:53.917Z,31.50
2019-06-26T08:03:22.442Z,31.70
2019-06-26T08:05:51.054Z,31.90
2019-06-26T08:08:19.629Z,32.00
2019-06-26T08:10:48.151Z,31.70
2019-06-26T08:13:16.766Z,31.80
2019-06-26T08:15:45.341Z,31.90
2019-06-26T08:18:13.927Z,32.00
2019-06-26T08:21:00.557Z,32.10
2019-06-26T08:23:12.701Z,32.20
2019-06-26T08:25:41.294Z,32.40
2019-06-26T08:28:09.935Z,32.50
2019-06-26T08:30:38.475Z,32.40
2019-06-26T08:33:07.037Z,32.50
2019-06-26T08:35:35.604Z,32.60
2019-06-26T08:38:10.254Z,32.70
2019-06-26T08:40:34.540Z,32.80
2019-06-26T08:43:03.250Z,32.70
2019-06-26T08:45:31.834Z,32.80
2019-06-26T08:48:16.945Z,32.90
2019-06-26T08:50:30.602Z,32.90
2019-06-26T08:52:59.106Z,32.70
2019-06-26T08:55:27.716Z,32.60
2019-06-26T08:57:56.275Z,32.80
2019-06-26T09:00:25.039Z,32.80
2019-06-26T09:02:53.557Z,33.10
2019-06-26T09:05:22.069Z,33.40
2019-06-26T09:07:50.655Z,33.50
2019-06-26T09:10:19.529Z,33.40
2019-06-26T09:12:48.096Z,33.30
2019-06-26T09:15:16.737Z,33.40
2019-06-26T09:17:45.259Z,33.50
2019-06-26T09:20:15.609Z,33.40
2019-06-26T09:22:44.396Z,33.20
2019-06-26T09:25:21.645Z,33.20
2019-06-26T09:27:43.297Z,33.40
2019-06-26T09:30:11.964Z,33.50
2019-06-26T09:32:40.482Z,33.00
2019-06-26T09:35:09.343Z,33.00
2019-06-26T09:37:37.909Z,33.20
2019-06-26T09:40:07.456Z,33.20
2019-06-26T09:42:36.011Z,33.30
2019-06-26T09:45:07.176Z,33.20
2019-06-26T09:47:35.772Z,33.40
2019-06-26T09:50:06.982Z,33.60
2019-06-26T09:52:35.537Z,33.40
2019-06-26T09:55:05.055Z,33.20
2019-06-26T09:57:33.567Z,33.40
2019-06-26T10:00:02.103Z,33.50
2019-06-26T10:02:30.749Z,33.40
2019-06-26T10:04:59.270Z,33.60
2019-06-26T10:07:27.814Z,33.70
2019-06-26T10:09:56.362Z,33.80
2019-06-26T10:12:24.871Z,33.80
2019-06-26T10:14:53.449Z,33.80
2019-06-26T10:17:22.066Z,34.10
2019-06-26T10:19:53.953Z,34.00
2019-06-26T10:22:20.870Z,34.10
2019-06-26T10:24:49.374Z,34.00
2019-06-26T10:27:17.938Z,34.10
2019-06-26T10:29:46.463Z,34.10
2019-06-26T10:32:15.058Z,34.20
2019-06-26T10:34:43.569Z,34.10
2019-06-26T10:37:12.078Z,34.20
2019-06-26T10:39:40.582Z,34.40
2019-06-26T10:42:09.245Z,34.80
2019-06-26T10:44:37.900Z,34.80
2019-06-26T10:47:06.418Z,34.50
2019-06-26T10:49:34.993Z,34.60
2019-06-26T10:52:03.773Z,34.50
2019-06-26T10:54:32.294Z,34.60
2019-06-26T10:57:00.867Z,34.40
2019-06-26T10:59:29.462Z,34.40
2019-06-26T11:01:58.099Z,34.40
2019-06-26T11:04:27.003Z,34.40
2019-06-26T11:06:55.637Z,34.40
2019-06-26T11:09:24.262Z,34.60
2019-06-26T11:11:52.766Z,34.80
2019-06-26T11:14:21.296Z,34.70
2019-06-26T11:16:49.915Z,34.80
2019-06-26T11:19:19.347Z,34.80
2019-06-26T11:21:47.854Z,34.60
2019-06-26T11:24:16.460Z,34.70
2019-06-26T11:26:45.210Z,34.70
2019-06-26T11:29:13.943Z,35.00
2019-06-26T11:31:42.513Z,35.00
2019-06-26T11:34:11.135Z,35.00
2019-06-26T11:36:39.749Z,35.40
2019-06-26T11:39:08.640Z,35.10
2019-06-26T11:41:37.113Z,34.70
2019-06-26T11:44:05.906Z,34.90
2019-06-26T11:46:36.933Z,35.10
2019-06-26T11:49:05.006Z,35.00
2019-06-26T11:51:33.534Z,35.00
2019-06-26T11:54:02.127Z,35.30
2019-06-26T11:56:30.724Z,35.00
2019-06-26T11:58:59.389Z,35.40
2019-06-26T12:01:27.925Z,35.40
2019-06-26T12:03:56.565Z,35.70
2019-06-26T12:06:25.128Z,36.00
2019-06-26T12:08:53.742Z,35.90
2019-06-26T12:11:22.307Z,35.90
2019-06-26T12:13:50.793Z,36.00
2019-06-26T12:16:19.298Z,35.70
2019-06-26T12:18:47.813Z,35.80
2019-06-26T12:21:16.330Z,36.10
2019-06-26T12:23:44.946Z,36.00
2019-06-26T12:26:13.518Z,36.20
2019-06-26T12:28:42.083Z,36.00
2019-06-26T12:31:10.614Z,36.00
2019-06-26T12:33:39.205Z,35.80
2019-06-26T12:36:08.012Z,35.80
2019-06-26T12:38:37.001Z,35.60
2019-06-26T12:41:05.623Z,35.80
2019-06-26T12:43:34.134Z,36.00
2019-06-26T12:46:02.647Z,36.10
2019-06-26T12:48:31.172Z,36.10
2019-06-26T12:50:59.758Z,36.00
2019-06-26T12:53:28.288Z,36.00
2019-06-26T12:55:56.799Z,36.00
2019-06-26T12:58:25.448Z,36.10
2019-06-26T13:00:54.031Z,36.20
2019-06-26T13:03:22.547Z,36.00
2019-06-26T13:05:51.037Z,36.20
2019-06-26T13:08:19.552Z,36.50
2019-06-26T13:10:50.150Z,36.50
2019-06-26T13:13:18.304Z,36.40
2019-06-26T13:15:48.678Z,36.00
2019-06-26T13:18:17.300Z,36.00
2019-06-26T13:20:52.985Z,36.00
2019-06-26T13:23:16.025Z,36.10
2019-06-26T13:25:44.822Z,36.10
2019-06-26T13:28:13.339Z,36.10
2019-06-26T13:30:41.999Z,36.00
2019-06-26T13:33:10.559Z,35.90
2019-06-26T13:35:39.057Z,35.90
2019-06-26T13:38:07.566Z,36.00
2019-06-26T13:40:36.081Z,36.00
2019-06-26T13:43:04.831Z,36.20
2019-06-26T13:45:33.360Z,36.30
2019-06-26T13:48:01.908Z,35.90
2019-06-26T13:50:30.843Z,35.80
2019-06-26T13:52:59.346Z,35.90
2019-06-26T13:55:27.871Z,35.60
2019-06-26T13:57:56.491Z,35.60
2019-06-26T14:00:25.018Z,35.70
2019-06-26T14:02:53.639Z,35.60
2019-06-26T14:05:22.310Z,35.40
2019-06-26T14:07:50.888Z,35.30
2019-06-26T14:10:19.691Z,35.20
2019-06-26T14:12:48.188Z,35.20
2019-06-26T14:15:17.455Z,35.20
2019-06-26T14:17:45.980Z,35.10
2019-06-26T14:20:15.107Z,35.20
2019-06-26T14:22:43.794Z,35.30
2019-06-26T14:25:12.702Z,35.30
2019-06-26T14:27:41.204Z,35.30
2019-06-26T14:30:10.564Z,35.00
2019-06-26T14:32:39.152Z,35.30
2019-06-26T14:35:08.204Z,35.30
2019-06-26T14:37:36.764Z,35.30
2019-06-26T14:40:08.369Z,35.10
2019-06-26T14:42:36.958Z,35.00
2019-06-26T14:45:09.123Z,34.90
2019-06-26T14:47:37.846Z,34.90
2019-06-26T14:50:07.458Z,35.00
2019-06-26T14:52:36.104Z,34.90
2019-06-26T14:55:05.875Z,35.00
2019-06-26T14:57:34.364Z,35.10
2019-06-26T15:00:03.181Z,35.00
2019-06-26T15:02:32.080Z,34.90
2019-06-26T15:05:00.791Z,34.80
2019-06-26T15:07:29.358Z,34.80
2019-06-26T15:09:57.981Z,34.70
2019-06-26T15:12:26.559Z,34.30
2019-06-26T15:14:55.055Z,34.40
2019-06-26T15:17:23.573Z,34.20
2019-06-26T15:19:52.082Z,34.20
2019-06-26T15:22:20.635Z,34.30
2019-06-26T15:24:50.131Z,34.00
2019-06-26T15:27:18.766Z,34.20
2019-06-26T15:29:47.375Z,34.00
2019-06-26T15:32:16.031Z,34.00
2019-06-26T15:34:44.585Z,33.70
2019-06-26T15:37:13.247Z,33.30
2019-06-26T15:39:41.778Z,33.10
2019-06-26T15:42:10.290Z,33.20
2019-06-26T15:44:38.835Z,33.30
2019-06-26T15:47:07.447Z,33.60
2019-06-26T15:49:35.933Z,33.70
2019-06-26T15:52:14.459Z,33.60
2019-06-26T15:54:34.831Z,33.30
2019-06-26T15:57:03.368Z,33.30
2019-06-26T15:59:31.930Z,33.30
2019-06-26T16:02:00.564Z,33.10
2019-06-26T16:04:29.070Z,32.80
2019-06-26T16:06:57.685Z,32.90
2019-06-26T16:09:26.275Z,32.60
2019-06-26T16:11:54.775Z,32.60
2019-06-26T16:14:23.383Z,32.50
2019-06-26T16:16:53.613Z,32.50
2019-06-26T16:19:24.073Z,32.40
2019-06-26T16:21:52.597Z,32.10
2019-06-26T16:24:21.182Z,32.40
2019-06-26T16:26:49.719Z,32.10
2019-06-26T16:29:18.305Z,32.00
2019-06-26T16:31:46.817Z,31.70
2019-06-26T16:34:15.432Z,31.60
2019-06-26T16:36:44.011Z,31.50
2019-06-26T16:39:12.533Z,31.60
2019-06-26T16:41:41.277Z,31.60
2019-06-26T16:44:09.779Z,31.50
2019-06-26T16:46:38.510Z,31.30
2019-06-26T16:49:07.206Z,31.40
2019-06-26T16:51:35.758Z,31.30
2019-06-26T16:54:04.382Z,31.00
2019-06-26T16:56:32.895Z,30.90
2019-06-26T16:59:01.425Z,31.00
2019-06-26T17:01:29.986Z,30.70
2019-06-26T17:03:58.514Z,30.70
2019-06-26T17:06:27.176Z,30.70
2019-06-26T17:08:55.738Z,30.60
2019-06-26T17:11:24.253Z,30.40
2019-06-26T17:13:52.782Z,30.30
2019-06-26T17:16:21.385Z,30.40
2019-06-26T17:18:49.963Z,30.20
2019-06-26T17:21:18.526Z,30.20
2019-06-26T17:23:47.062Z,30.20
2019-06-26T17:26:15.579Z,30.00
2019-06-26T17:28:44.088Z,29.90
2019-06-26T17:31:12.615Z,29.80
2019-06-26T17:33:41.195Z,29.70
2019-06-26T17:36:09.827Z,29.50
2019-06-26T17:38:38.399Z,29.30
2019-06-26T17:41:07.059Z,29.30
2019-06-26T17:43:35.642Z,29.20
2019-06-26T17:46:04.224Z,29.10
2019-06-26T17:48:32.750Z,28.90
2019-06-26T17:51:01.507Z,28.90
2019-06-26T17:53:30.230Z,29.00
2019-06-26T17:55:58.801Z,28.90
2019-06-26T17:58:27.476Z,28.70
2019-06-26T18:00:56.074Z,28.70
2019-06-26T18:03:24.601Z,28.60
2019-06-26T18:05:53.241Z,28.50
2019-06-26T18:15:31.369Z,28.10
2019-06-26T18:18:00.053Z,28.00
2019-06-26T18:20:28.673Z,27.90
2019-06-26T18:23:06.932Z,27.80
2019-06-26T18:25:27.444Z,27.70
2019-06-26T18:27:56.151Z,27.60
2019-06-26T18:33:53.516Z,27.80
2019-06-26T18:36:22.009Z,27.80
2019-06-26T18:38:50.641Z,27.80
2019-06-26T18:41:19.222Z,27.70
2019-06-26T18:43:47.807Z,27.50
2019-06-26T18:46:16.300Z,27.20
2019-06-26T18:48:44.825Z,27.10
2019-06-26T18:51:13.451Z,26.90
2019-06-26T18:53:53.188Z,26.70
2019-06-26T18:56:12.423Z,26.80
2019-06-26T18:58:40.994Z,26.90
2019-06-26T19:01:09.647Z,26.80
2019-06-26T19:03:38.329Z,26.90
2019-06-26T19:06:06.933Z,26.90
2019-06-26T19:08:35.502Z,26.70
2019-06-26T19:11:04.122Z,26.50
2019-06-26T19:13:32.696Z,26.60
2019-06-26T19:16:04.336Z,26.40
2019-06-26T19:18:31.574Z,26.30
2019-06-26T19:21:00.225Z,26.10
2019-06-26T19:23:28.950Z,25.90
2019-06-26T19:29:26.564Z,26.00
2019-06-26T19:31:55.095Z,26.00
2019-06-26T19:34:23.893Z,25.80
2019-06-26T19:36:52.417Z,25.60
2019-06-26T19:39:21.347Z,25.50
2019-06-26T19:41:50.104Z,25.40
2019-06-26T19:44:18.706Z,25.20
2019-06-26T19:46:47.334Z,25.20
2019-06-26T19:49:15.839Z,25.00
2019-06-26T19:51:44.391Z,25.00
2019-06-26T19:54:26.043Z,24.90
2019-06-26T19:56:43.240Z,24.60
2019-06-26T19:59:11.834Z,24.30
2019-06-26T20:01:40.341Z,24.30
2019-06-26T20:04:08.843Z,24.20
2019-06-26T20:06:37.434Z,23.90
2019-06-26T20:09:07.668Z,24.00
2019-06-26T20:11:36.251Z,23.90
2019-06-26T20:14:04.934Z,24.00
2019-06-26T20:16:33.426Z,23.80
2019-06-26T20:19:01.948Z,23.40
2019-06-26T20:21:30.566Z,23.20
2019-06-26T20:23:59.297Z,23.20
2019-06-26T20:26:27.846Z,23.00
2019-06-26T20:28:56.423Z,22.90
2019-06-26T20:31:24.945Z,22.70
2019-06-26T20:33:53.659Z,22.50
2019-06-26T20:36:22.936Z,22.60
2019-06-26T20:38:51.951Z,22.60
2019-06-26T20:41:22.764Z,22.70
2019-06-26T20:43:53.183Z,22.60
2019-06-26T20:46:21.939Z,22.40
2019-06-26T20:48:50.746Z,22.30
2019-06-26T20:51:20.892Z,22.30
2019-06-26T20:53:49.751Z,22.40
2019-06-26T20:56:19.339Z,22.40
2019-06-26T20:58:48.805Z,22.20
2019-06-26T21:01:17.408Z,22.10
2019-06-26T21:03:46.018Z,21.90
2019-06-26T21:06:14.534Z,21.80
2019-06-26T21:08:43.068Z,21.70
2019-06-26T21:11:11.648Z,21.50
2019-06-26T21:13:40.396Z,21.60
2019-06-26T21:16:08.926Z,21.80
2019-06-26T21:18:37.511Z,22.10
2019-06-26T21:21:06.162Z,22.10
2019-06-26T21:23:34.773Z,22.00
2019-06-26T21:26:03.334Z,21.70
2019-06-26T21:28:31.855Z,21.60
2019-06-26T21:31:00.471Z,21.20
2019-06-26T21:33:28.982Z,21.10
2019-06-26T21:35:57.470Z,21.20
2019-06-26T21:38:25.998Z,21.20
2019-06-26T21:40:54.487Z,21.10
2019-06-26T21:43:23.083Z,21.20
2019-06-26T21:45:51.594Z,21.00
2019-06-26T21:48:20.198Z,21.00
2019-06-26T21:50:48.826Z,20.90
2019-06-26T21:53:17.351Z,20.70
2019-06-26T21:55:45.910Z,20.80
2019-06-26T21:58:14.404Z,20.90
2019-06-26T22:00:43.001Z,20.80
2019-06-26T22:03:11.786Z,21.10
2019-06-26T22:05:40.383Z,21.00
2019-06-26T22:08:09.041Z,21.10
2019-06-26T22:10:37.719Z,20.90
2019-06-26T22:13:06.526Z,20.80
2019-06-26T22:15:35.090Z,20.80
2019-06-26T22:18:03.748Z,20.80
2019-06-26T22:20:32.427Z,20.80
2019-06-26T22:23:00.991Z,20.90
2019-06-26T22:25:29.515Z,21.00
2019-06-26T22:27:58.079Z,21.10
2019-06-26T22:30:26.825Z,21.00
2019-06-26T22:32:55.331Z,20.80
2019-06-26T22:35:23.916Z,20.90
2019-06-26T22:37:52.483Z,21.00
2019-06-26T22:40:23.430Z,20.90
2019-06-26T22:42:52.001Z,20.90
2019-06-26T22:45:20.600Z,20.60
2019-06-26T22:47:49.142Z,20.60
2019-06-26T22:50:18.059Z,20.40
2019-06-26T22:52:46.730Z,20.30
2019-06-26T22:55:15.363Z,20.40
2019-06-26T22:57:43.847Z,20.30
2019-06-26T23:00:14.856Z,20.20
2019-06-26T23:02:43.436Z,20.30
2019-06-26T23:05:12.182Z,20.30
2019-06-26T23:07:40.783Z,20.30
2019-06-26T23:10:11.475Z,20.20
2019-06-26T23:12:40.027Z,20.40
2019-06-26T23:15:09.671Z,20.40
2019-06-26T23:17:38.163Z,20.20
2019-06-26T23:20:07.381Z,20.00
2019-06-26T23:22:35.885Z,20.00
2019-06-26T23:25:06.481Z,20.00
2019-06-26T23:27:35.049Z,19.90
2019-06-26T23:30:05.646Z,19.80
2019-06-26T23:32:34.202Z,19.80
2019-06-26T23:35:02.718Z,19.80
2019-06-26T23:37:31.231Z,19.90
2019-06-26T23:39:59.754Z,20.10
2019-06-26T23:42:28.289Z,20.10
2019-06-26T23:44:56.879Z,20.10
2019-06-26T23:47:25.469Z,20.30
2019-06-26T23:49:54.118Z,20.40
2019-06-26T23:52:22.646Z,20.20
2019-06-26T23:54:51.140Z,20.10
2019-06-26T23:57:19.919Z,20.10
2019-06-26T23:59:49.811Z,20.20
